createdAt,value
2023-04-07T00:00:04.737Z,2.10
2023-04-07T00:02:33.123Z,2.10
2023-04-07T00:05:02.902Z,2.10
2023-04-07T00:07:31.822Z,2.10
2023-04-07T00:10:05.162Z,2.10
2023-04-07T00:12:33.139Z,2.10
2023-04-07T00:15:01.169Z,2.10
2023-04-07T00:17:29.501Z,2.10
2023-04-07T00:19:57.602Z,2.10
2023-04-07T00:22:28.366Z,2.00
2023-04-07T00:24:56.395Z,2.10
2023-04-07T00:27:26.385Z,2.10
2023-04-07T00:29:55.377Z,2.10
2023-04-07T00:32:23.552Z,2.10
2023-04-07T00:34:51.541Z,2.10
2023-04-07T00:37:19.841Z,2.10
2023-04-07T00:39:48.301Z,2.10
2023-04-07T00:42:17.051Z,2.10
2023-04-07T00:44:46.444Z,2.10
2023-04-07T00:47:15.537Z,2.10
2023-04-07T00:49:43.690Z,2.10
2023-04-07T00:52:13.094Z,2.10
2023-04-07T00:54:42.959Z,2.10
2023-04-07T00:57:11.013Z,2.10
2023-04-07T00:59:39.421Z,2.10
2023-04-07T01:02:13.357Z,2.10
2023-04-07T01:04:50.102Z,2.10
2023-04-07T01:07:24.262Z,2.10
2023-04-07T01:10:00.815Z,2.10
2023-04-07T01:12:37.298Z,2.10
2023-04-07T01:15:10.406Z,2.10
2023-04-07T01:17:46.305Z,2.10
2023-04-07T01:20:17.459Z,2.10
2023-04-07T01:22:48.763Z,2.10
2023-04-07T01:25:27.887Z,2.10
2023-04-07T01:28:16.979Z,2.10
2023-04-07T01:30:48.046Z,2.10
2023-04-07T01:33:17.055Z,2.10
2023-04-07T01:35:46.832Z,2.10
2023-04-07T01:38:16.352Z,2.10
2023-04-07T01:40:45.570Z,2.10
2023-04-07T01:43:14.479Z,2.10
2023-04-07T01:45:43.271Z,2.10
2023-04-07T01:48:13.237Z,2.10
2023-04-07T01:50:41.777Z,2.10
2023-04-07T01:53:09.881Z,2.10
2023-04-07T01:55:38.992Z,2.10
2023-04-07T01:58:07.522Z,2.10
2023-04-07T02:00:35.582Z,2.10
2023-04-07T02:03:10.672Z,2.10
2023-04-07T02:05:41.150Z,2.10
2023-04-07T02:08:11.353Z,2.10
2023-04-07T02:10:40.289Z,2.10
2023-04-07T02:13:11.431Z,2.10
2023-04-07T02:15:40.604Z,2.10
2023-04-07T02:18:12.805Z,2.10
2023-04-07T02:20:44.908Z,2.10
2023-04-07T02:23:13.462Z,2.10
2023-04-07T02:25:41.624Z,2.10
2023-04-07T02:28:09.646Z,2.10
2023-04-07T02:30:37.701Z,2.10
2023-04-07T02:33:08.402Z,2.10
2023-04-07T02:35:36.401Z,2.10
2023-04-07T02:38:06.087Z,2.10
2023-04-07T02:40:34.068Z,2.10
2023-04-07T02:43:02.039Z,2.10
2023-04-07T02:45:30.041Z,2.10
2023-04-07T02:47:58.101Z,2.10
2023-04-07T02:50:26.409Z,2.10
2023-04-07T02:52:54.387Z,2.10
2023-04-07T02:55:23.752Z,2.10
2023-04-07T02:57:51.783Z,2.10
2023-04-07T03:00:20.363Z,2.10
2023-04-07T03:02:48.469Z,2.10
2023-04-07T03:05:16.708Z,2.10
2023-04-07T03:07:44.695Z,2.10
2023-04-07T03:10:12.785Z,2.10
2023-04-07T03:12:42.148Z,2.10
2023-04-07T03:15:10.760Z,2.10
2023-04-07T03:17:38.804Z,2.10
2023-04-07T03:20:08.758Z,2.10
2023-04-07T03:22:36.738Z,2.10
2023-04-07T03:25:05.018Z,2.10
2023-04-07T03:27:33.091Z,2.10
2023-04-07T03:30:02.494Z,2.10
2023-04-07T03:32:30.627Z,2.10
2023-04-07T03:34:58.606Z,2.10
2023-04-07T03:37:26.605Z,2.10
2023-04-07T03:39:54.578Z,2.10
2023-04-07T03:42:22.598Z,2.10
2023-04-07T03:44:50.574Z,2.10
2023-04-07T03:47:21.518Z,2.10
2023-04-07T03:49:49.511Z,2.10
2023-04-07T03:52:17.964Z,2.10
2023-04-07T03:54:45.926Z,2.10
2023-04-07T03:57:14.100Z,2.10
2023-04-07T03:59:42.402Z,2.10
2023-04-07T04:02:10.650Z,2.10
2023-04-07T04:04:41.398Z,2.10
2023-04-07T04:07:09.392Z,2.10
2023-04-07T04:09:37.351Z,2.10
2023-04-07T04:12:07.757Z,2.10
2023-04-07T04:14:35.720Z,2.10
2023-04-07T04:17:05.424Z,2.10
2023-04-07T04:19:33.882Z,2.10
2023-04-07T04:22:03.246Z,2.10
2023-04-07T04:24:31.209Z,2.10
2023-04-07T04:27:01.897Z,2.10
2023-04-07T04:29:32.296Z,2.10
2023-04-07T04:32:00.953Z,2.10
2023-04-07T04:34:28.922Z,2.10
2023-04-07T04:36:59.426Z,2.20
2023-04-07T04:39:28.846Z,2.20
2023-04-07T04:41:57.381Z,2.20
2023-04-07T04:44:30.121Z,2.20
2023-04-07T04:46:58.313Z,2.20
2023-04-07T04:49:26.484Z,2.20
2023-04-07T04:51:54.458Z,2.10
2023-04-07T04:54:22.699Z,2.10
2023-04-07T04:56:52.193Z,2.20
2023-04-07T04:59:20.261Z,2.20
2023-04-07T05:01:48.304Z,2.20
2023-04-07T05:04:16.825Z,2.20
2023-04-07T05:06:45.728Z,2.20
2023-04-07T05:09:13.692Z,2.20
2023-04-07T05:11:42.292Z,2.20
2023-04-07T05:14:11.867Z,2.20
2023-04-07T05:16:39.985Z,2.20
2023-04-07T05:19:08.134Z,2.20
2023-04-07T05:21:36.409Z,2.20
2023-04-07T05:24:04.597Z,2.20
2023-04-07T05:26:32.619Z,2.20
2023-04-07T05:29:00.857Z,2.20
2023-04-07T05:31:30.375Z,2.20
2023-04-07T05:33:58.398Z,2.20
2023-04-07T05:36:27.663Z,2.30
2023-04-07T05:38:55.756Z,2.30
2023-04-07T05:41:23.777Z,2.30
2023-04-07T05:43:52.068Z,2.30
2023-04-07T05:46:20.513Z,2.30
2023-04-07T05:48:50.080Z,2.30
2023-04-07T05:51:20.163Z,2.30
2023-04-07T05:53:48.254Z,2.30
2023-04-07T05:56:16.219Z,2.30
2023-04-07T05:58:44.208Z,2.30
2023-04-07T06:01:12.188Z,2.40
2023-04-07T06:03:41.163Z,2.40
2023-04-07T06:06:11.831Z,2.40
2023-04-07T06:08:39.913Z,2.40
2023-04-07T06:11:07.869Z,2.40
2023-04-07T06:13:35.924Z,2.40
2023-04-07T06:16:03.938Z,2.40
2023-04-07T06:18:31.913Z,2.40
2023-04-07T06:21:02.574Z,2.40
2023-04-07T06:23:31.996Z,2.40
2023-04-07T06:26:00.067Z,2.40
2023-04-07T06:28:28.135Z,2.50
2023-04-07T06:30:57.687Z,2.50
2023-04-07T06:33:26.430Z,2.50
2023-04-07T06:35:54.486Z,2.50
2023-04-07T06:38:22.476Z,2.50
2023-04-07T06:40:52.842Z,2.60
2023-04-07T06:43:21.191Z,2.50
2023-04-07T06:45:49.590Z,2.60
2023-04-07T06:48:17.619Z,2.60
2023-04-07T06:50:47.552Z,2.60
2023-04-07T06:53:15.664Z,2.60
2023-04-07T06:55:46.360Z,2.60
2023-04-07T06:58:15.773Z,2.60
2023-04-07T07:00:43.803Z,2.60
2023-04-07T07:03:11.925Z,2.60
2023-04-07T07:05:39.948Z,2.60
2023-04-07T07:08:07.953Z,2.70
2023-04-07T07:10:36.251Z,2.70
2023-04-07T07:13:04.275Z,2.70
2023-04-07T07:15:33.742Z,2.70
2023-04-07T07:18:01.901Z,2.70
2023-04-07T07:20:30.433Z,2.80
2023-04-07T07:22:58.434Z,2.80
2023-04-07T07:25:26.826Z,2.80
2023-04-07T07:27:54.925Z,2.80
2023-04-07T07:30:24.049Z,2.80
2023-04-07T07:32:54.542Z,2.80
2023-04-07T07:35:23.292Z,2.80
2023-04-07T07:37:51.908Z,2.80
2023-04-07T07:40:20.449Z,2.80
2023-04-07T07:42:48.646Z,2.90
2023-04-07T07:45:19.451Z,2.90
2023-04-07T07:47:47.599Z,2.90
2023-04-07T07:50:20.071Z,2.90
2023-04-07T07:52:48.288Z,2.90
2023-04-07T07:55:16.328Z,2.90
2023-04-07T07:57:44.327Z,2.90
2023-04-07T08:00:13.503Z,2.90
2023-04-07T08:02:43.058Z,2.90
2023-04-07T08:05:11.357Z,2.90
2023-04-07T08:07:43.052Z,2.90
2023-04-07T08:10:11.280Z,2.90
2023-04-07T08:12:40.627Z,2.90
2023-04-07T08:15:10.362Z,2.90
2023-04-07T08:17:38.662Z,2.90
2023-04-07T08:20:08.417Z,3.00
2023-04-07T08:22:36.408Z,2.90
2023-04-07T08:25:06.491Z,3.00
2023-04-07T08:27:34.621Z,3.00
2023-04-07T08:30:07.353Z,3.00
2023-04-07T08:32:39.450Z,3.00
2023-04-07T08:35:07.907Z,3.00
2023-04-07T08:37:36.725Z,2.90
2023-04-07T08:40:07.611Z,3.00
2023-04-07T08:42:37.062Z,3.00
2023-04-07T08:45:09.868Z,3.00
2023-04-07T08:47:40.112Z,3.00
2023-04-07T08:50:10.782Z,3.00
2023-04-07T08:52:44.719Z,3.00
2023-04-07T08:55:14.648Z,3.00
2023-04-07T08:57:43.439Z,3.00
2023-04-07T09:00:12.986Z,3.00
2023-04-07T09:02:44.314Z,3.00
2023-04-07T09:05:14.493Z,3.00
2023-04-07T09:07:43.553Z,3.00
2023-04-07T09:10:11.872Z,3.00
2023-04-07T09:12:41.722Z,3.00
2023-04-07T09:15:11.174Z,3.00
2023-04-07T09:17:39.197Z,3.10
2023-04-07T09:20:09.456Z,3.10
2023-04-07T09:22:38.828Z,3.10
2023-04-07T09:25:15.590Z,3.10
2023-04-07T09:27:58.940Z,3.10
2023-04-07T09:30:27.935Z,3.10
2023-04-07T09:32:58.181Z,3.00
2023-04-07T09:35:29.825Z,3.00
2023-04-07T09:38:09.948Z,3.00
2023-04-07T09:40:39.754Z,3.00
2023-04-07T09:43:16.894Z,3.00
2023-04-07T09:45:44.955Z,3.00
2023-04-07T09:48:20.366Z,3.00
2023-04-07T09:50:51.036Z,3.00
2023-04-07T09:53:20.172Z,3.00
2023-04-07T09:55:50.088Z,3.00
2023-04-07T09:58:19.607Z,3.10
2023-04-07T10:00:49.141Z,3.10
2023-04-07T10:03:17.317Z,3.10
2023-04-07T10:05:49.250Z,3.10
2023-04-07T10:08:17.707Z,3.10
2023-04-07T10:10:46.211Z,3.10
2023-04-07T10:13:14.651Z,3.10
2023-04-07T10:15:44.367Z,3.10
2023-04-07T10:18:12.952Z,3.10
2023-04-07T10:20:42.551Z,3.20
2023-04-07T10:23:20.132Z,3.20
2023-04-07T10:25:50.205Z,3.20
2023-04-07T10:28:22.675Z,3.20
2023-04-07T10:30:52.931Z,3.20
2023-04-07T10:33:49.759Z,3.30
2023-04-07T10:36:21.040Z,3.30
2023-04-07T10:39:22.156Z,3.20
2023-04-07T10:41:51.730Z,3.30
2023-04-07T10:44:48.232Z,3.30
2023-04-07T10:47:16.433Z,3.30
2023-04-07T10:50:20.149Z,3.30
2023-04-07T10:52:52.471Z,3.30
2023-04-07T10:55:33.858Z,3.40
2023-04-07T10:58:18.721Z,3.40
2023-04-07T11:01:21.045Z,3.40
2023-04-07T11:04:04.810Z,3.50
2023-04-07T11:06:33.354Z,3.50
2023-04-07T11:09:03.286Z,3.50
2023-04-07T11:11:42.521Z,3.50
2023-04-07T11:14:10.853Z,3.60
2023-04-07T11:16:41.758Z,3.60
2023-04-07T11:19:11.765Z,3.70
2023-04-07T11:21:42.003Z,3.70
2023-04-07T11:24:21.775Z,3.70
2023-04-07T11:26:50.681Z,3.70
2023-04-07T11:29:28.941Z,3.60
2023-04-07T11:32:01.590Z,3.60
2023-04-07T11:34:31.086Z,3.60
2023-04-07T11:37:01.925Z,3.70
2023-04-07T11:39:32.260Z,3.70
2023-04-07T11:42:00.384Z,3.70
2023-04-07T11:44:28.366Z,3.70
2023-04-07T11:46:57.797Z,3.70
2023-04-07T11:49:28.049Z,3.70
2023-04-07T11:52:00.883Z,3.70
2023-04-07T11:54:29.561Z,3.80
2023-04-07T11:56:59.005Z,3.80
2023-04-07T11:59:28.649Z,3.80
2023-04-07T12:01:58.037Z,3.80
2023-04-07T12:04:26.599Z,3.80
2023-04-07T12:06:57.114Z,3.80
2023-04-07T12:09:30.478Z,3.80
2023-04-07T12:12:00.446Z,3.80
2023-04-07T12:14:28.801Z,3.80
2023-04-07T12:16:58.239Z,3.80
2023-04-07T12:19:28.737Z,3.80
2023-04-07T12:21:57.037Z,3.80
2023-04-07T12:24:25.116Z,3.90
2023-04-07T12:26:53.493Z,3.80
2023-04-07T12:29:23.025Z,3.90
2023-04-07T12:31:51.488Z,3.90
2023-04-07T12:34:20.079Z,4.00
2023-04-07T12:36:48.288Z,4.00
2023-04-07T12:39:17.164Z,4.00
2023-04-07T12:41:46.103Z,4.00
2023-04-07T12:44:14.249Z,4.00
2023-04-07T12:46:45.150Z,4.00
2023-04-07T12:49:13.130Z,4.00
2023-04-07T12:51:41.816Z,4.10
2023-04-07T12:54:09.801Z,4.10
2023-04-07T12:56:38.830Z,4.10
2023-04-07T12:59:07.296Z,4.10
2023-04-07T13:01:37.278Z,4.10
2023-04-07T13:04:11.694Z,4.10
2023-04-07T13:06:40.714Z,4.10
2023-04-07T13:09:08.806Z,4.10
2023-04-07T13:11:37.159Z,4.10
2023-04-07T13:14:05.413Z,4.20
2023-04-07T13:16:34.113Z,4.20
2023-04-07T13:19:02.185Z,4.20
2023-04-07T13:24:03.390Z,4.20
2023-04-07T13:26:31.413Z,4.10
2023-04-07T13:28:59.400Z,4.20
2023-04-07T13:31:28.470Z,4.20
2023-04-07T13:33:56.460Z,4.20
2023-04-07T13:36:24.448Z,4.20
2023-04-07T13:38:53.813Z,4.20
2023-04-07T13:41:27.610Z,4.20
2023-04-07T13:43:56.509Z,4.20
2023-04-07T13:46:27.785Z,4.20
2023-04-07T13:48:56.470Z,4.20
2023-04-07T13:51:24.504Z,4.30
2023-04-07T13:53:53.857Z,4.30
2023-04-07T13:56:22.577Z,4.30
2023-04-07T13:58:50.560Z,4.30
2023-04-07T14:01:18.712Z,4.20
2023-04-07T14:03:47.856Z,4.20
2023-04-07T14:06:16.326Z,4.20
2023-04-07T14:08:44.267Z,4.20
2023-04-07T14:11:17.467Z,4.20
2023-04-07T14:13:45.431Z,4.20
2023-04-07T14:16:13.690Z,4.20
2023-04-07T14:18:41.873Z,4.10
2023-04-07T14:21:10.049Z,4.10
2023-04-07T14:23:38.862Z,4.10
2023-04-07T14:26:06.888Z,4.10
2023-04-07T14:28:36.230Z,4.20
2023-04-07T14:31:04.505Z,4.20
2023-04-07T14:33:32.515Z,4.10
2023-04-07T14:36:02.801Z,4.20
2023-04-07T14:38:32.011Z,4.20
2023-04-07T14:43:48.401Z,4.20
2023-04-07T14:46:19.021Z,4.20
2023-04-07T14:48:47.154Z,4.10
2023-04-07T14:51:15.238Z,4.20
2023-04-07T14:53:43.560Z,4.20
2023-04-07T14:56:11.875Z,4.20
2023-04-07T14:58:44.047Z,4.20
2023-04-07T15:01:12.216Z,4.20
2023-04-07T15:03:42.425Z,4.20
2023-04-07T15:06:11.383Z,4.20
2023-04-07T15:08:39.551Z,4.20
2023-04-07T15:11:07.833Z,4.10
2023-04-07T15:13:36.575Z,4.10
2023-04-07T15:16:11.903Z,4.10
2023-04-07T15:18:46.770Z,4.10
2023-04-07T15:21:17.476Z,4.20
2023-04-07T15:23:46.813Z,4.20
2023-04-07T15:26:16.588Z,4.20
2023-04-07T15:28:44.555Z,4.10
2023-04-07T15:31:15.295Z,4.10
2023-04-07T15:33:44.193Z,4.20
2023-04-07T15:36:12.205Z,4.20
2023-04-07T15:38:40.427Z,4.10
2023-04-07T15:41:08.520Z,4.20
2023-04-07T15:43:37.502Z,4.20
2023-04-07T15:46:05.588Z,4.20
2023-04-07T15:48:34.958Z,4.10
2023-04-07T15:51:02.981Z,4.20
2023-04-07T15:53:31.168Z,4.20
2023-04-07T15:55:59.244Z,4.20
2023-04-07T15:58:27.207Z,4.20
2023-04-07T16:00:55.350Z,4.20
2023-04-07T16:03:23.648Z,4.20
2023-04-07T16:05:53.243Z,4.20
2023-04-07T16:08:21.633Z,4.10
2023-04-07T16:10:49.617Z,4.20
2023-04-07T16:13:17.980Z,4.20
2023-04-07T16:15:48.730Z,4.20
2023-04-07T16:18:16.861Z,4.20
2023-04-07T16:20:47.811Z,4.20
2023-04-07T16:23:17.169Z,4.20
2023-04-07T16:25:48.427Z,4.20
2023-04-07T16:28:16.724Z,4.20
2023-04-07T16:30:47.516Z,4.20
2023-04-07T16:33:15.530Z,4.20
2023-04-07T16:35:43.528Z,4.20
2023-04-07T16:38:11.525Z,4.20
2023-04-07T16:40:41.696Z,4.20
2023-04-07T16:43:11.656Z,4.20
2023-04-07T16:45:39.702Z,4.20
2023-04-07T16:48:07.786Z,4.20
2023-04-07T16:50:35.747Z,4.20
2023-04-07T16:53:03.680Z,4.20
2023-04-07T16:55:31.662Z,4.20
2023-04-07T16:58:01.087Z,4.20
2023-04-07T17:00:29.120Z,4.20
2023-04-07T17:02:57.189Z,4.20
2023-04-07T17:05:25.339Z,4.20
2023-04-07T17:07:56.145Z,4.20
2023-04-07T17:10:25.273Z,4.20
2023-04-07T17:12:56.089Z,4.20
2023-04-07T17:15:25.409Z,4.20
2023-04-07T17:17:53.429Z,4.20
2023-04-07T17:20:22.603Z,4.20
2023-04-07T17:22:50.750Z,4.20
2023-04-07T17:25:19.173Z,4.20
2023-04-07T17:27:47.924Z,4.20
2023-04-07T17:30:16.198Z,4.20
2023-04-07T17:32:48.116Z,4.20
2023-04-07T17:35:16.123Z,4.20
2023-04-07T17:37:44.116Z,4.20
2023-04-07T17:40:12.910Z,4.20
2023-04-07T17:42:43.179Z,4.20
2023-04-07T17:45:11.751Z,4.10
2023-04-07T17:47:40.373Z,4.20
2023-04-07T17:50:11.054Z,4.20
2023-04-07T17:52:39.004Z,4.20
2023-04-07T17:55:08.440Z,4.10
2023-04-07T17:57:37.184Z,4.10
2023-04-07T18:00:06.544Z,4.10
2023-04-07T18:02:34.861Z,4.20
2023-04-07T18:05:03.761Z,4.10
2023-04-07T18:07:33.169Z,4.10
2023-04-07T18:10:03.614Z,4.10
2023-04-07T18:12:33.800Z,4.10
2023-04-07T18:15:03.278Z,4.10
2023-04-07T18:17:33.049Z,4.10
2023-04-07T18:20:05.091Z,4.10
2023-04-07T18:22:40.060Z,4.10
2023-04-07T18:25:09.566Z,4.00
2023-04-07T18:27:39.684Z,4.00
2023-04-07T18:30:09.905Z,4.00
2023-04-07T18:32:40.701Z,4.00
2023-04-07T18:35:09.843Z,4.00
2023-04-07T18:37:43.989Z,4.00
2023-04-07T18:40:13.273Z,4.00
2023-04-07T18:42:52.868Z,4.00
2023-04-07T18:45:24.779Z,3.90
2023-04-07T18:47:55.774Z,3.90
2023-04-07T18:50:27.101Z,3.90
2023-04-07T18:53:15.019Z,3.90
2023-04-07T18:55:48.940Z,3.90
2023-04-07T18:58:24.881Z,3.90
2023-04-07T19:00:54.754Z,3.90
2023-04-07T19:03:24.353Z,3.90
2023-04-07T19:05:58.925Z,3.90
2023-04-07T19:08:28.656Z,3.90
2023-04-07T19:11:01.656Z,3.80
2023-04-07T19:13:33.482Z,3.90
2023-04-07T19:16:09.961Z,3.80
2023-04-07T19:18:48.396Z,3.80
2023-04-07T19:21:20.353Z,3.80
2023-04-07T19:23:57.291Z,3.80
2023-04-07T19:26:36.366Z,3.80
2023-04-07T19:29:14.460Z,3.80
2023-04-07T19:31:45.351Z,3.80
2023-04-07T19:34:19.123Z,3.80
2023-04-07T19:36:53.528Z,3.80
2023-04-07T19:39:35.406Z,3.80
2023-04-07T19:42:09.205Z,3.80
2023-04-07T19:44:41.329Z,3.80
2023-04-07T19:47:11.518Z,3.80
2023-04-07T19:49:40.047Z,3.80
2023-04-07T19:52:13.678Z,3.80
2023-04-07T19:54:43.531Z,3.80
2023-04-07T19:57:21.429Z,3.80
2023-04-07T19:59:55.762Z,3.80
2023-04-07T20:02:32.282Z,3.80
2023-04-07T20:05:08.900Z,3.80
2023-04-07T20:07:39.545Z,3.70
2023-04-07T20:10:14.262Z,3.70
2023-04-07T20:12:52.402Z,3.80
2023-04-07T20:15:24.102Z,3.70
2023-04-07T20:17:54.033Z,3.70
2023-04-07T20:20:27.355Z,3.70
2023-04-07T20:22:59.742Z,3.70
2023-04-07T20:25:34.477Z,3.70
2023-04-07T20:28:02.968Z,3.70
2023-04-07T20:30:38.087Z,3.70
2023-04-07T20:33:10.282Z,3.60
2023-04-07T20:35:38.575Z,3.60
2023-04-07T20:38:09.719Z,3.60
2023-04-07T20:40:42.892Z,3.60
2023-04-07T20:43:12.427Z,3.60
2023-04-07T20:45:41.820Z,3.60
2023-04-07T20:48:25.672Z,3.60
2023-04-07T20:50:59.780Z,3.50
2023-04-07T20:53:27.888Z,3.50
2023-04-07T20:55:59.059Z,3.50
2023-04-07T20:58:33.344Z,3.50
2023-04-07T21:01:04.224Z,3.50
2023-04-07T21:03:32.672Z,3.50
2023-04-07T21:06:07.029Z,3.50
2023-04-07T21:08:36.955Z,3.50
2023-04-07T21:11:06.496Z,3.50
2023-04-07T21:13:34.728Z,3.50
2023-04-07T21:16:05.687Z,3.50
2023-04-07T21:18:35.769Z,3.50
2023-04-07T21:21:08.148Z,3.50
2023-04-07T21:23:36.275Z,3.50
2023-04-07T21:26:06.209Z,3.50
2023-04-07T21:28:34.181Z,3.50
2023-04-07T21:31:02.496Z,3.50
2023-04-07T21:33:30.552Z,3.50
2023-04-07T21:36:02.832Z,3.50
2023-04-07T21:38:31.114Z,3.60
2023-04-07T21:40:59.143Z,3.60
2023-04-07T21:43:29.170Z,3.60
2023-04-07T21:45:57.417Z,3.50
2023-04-07T21:48:25.438Z,3.50
2023-04-07T21:50:54.712Z,3.50
2023-04-07T21:53:22.715Z,3.50
2023-04-07T21:55:51.490Z,3.50
2023-04-07T21:58:23.399Z,3.50
2023-04-07T22:00:54.441Z,3.50
2023-04-07T22:03:22.776Z,3.50
2023-04-07T22:05:51.096Z,3.50
2023-04-07T22:08:21.146Z,3.50
2023-04-07T22:10:49.089Z,3.50
2023-04-07T22:13:17.332Z,3.50
2023-04-07T22:15:47.780Z,3.50
2023-04-07T22:18:17.190Z,3.50
2023-04-07T22:20:47.148Z,3.50
2023-04-07T22:23:15.325Z,3.50
2023-04-07T22:25:43.281Z,3.50
2023-04-07T22:28:11.292Z,3.50
2023-04-07T22:30:39.426Z,3.50
2023-04-07T22:33:09.011Z,3.40
2023-04-07T22:35:39.668Z,3.40
2023-04-07T22:38:07.713Z,3.40
2023-04-07T22:40:36.620Z,3.40
2023-04-07T22:43:06.509Z,3.40
2023-04-07T22:45:35.450Z,3.40
2023-04-07T22:48:03.630Z,3.40
2023-04-07T22:50:32.135Z,3.40
2023-04-07T22:53:03.785Z,3.40
2023-04-07T22:55:31.811Z,3.40
2023-04-07T22:58:00.035Z,3.40
2023-04-07T23:00:28.155Z,3.30
2023-04-07T23:02:56.480Z,3.30
2023-04-07T23:05:27.454Z,3.30
2023-04-07T23:07:56.244Z,3.30
2023-04-07T23:10:28.189Z,3.30
2023-04-07T23:12:56.338Z,3.30
2023-04-07T23:15:24.301Z,3.30
2023-04-07T23:17:52.644Z,3.30
2023-04-07T23:20:20.855Z,3.30
2023-04-07T23:22:48.821Z,3.30
2023-04-07T23:25:17.051Z,3.20
2023-04-07T23:27:46.355Z,3.20
2023-04-07T23:30:14.520Z,3.20
2023-04-07T23:32:45.001Z,3.20
2023-04-07T23:35:13.218Z,3.20
2023-04-07T23:37:46.075Z,3.20
2023-04-07T23:40:14.827Z,3.10
2023-04-07T23:42:42.773Z,3.10
2023-04-07T23:45:12.615Z,3.10
2023-04-07T23:47:40.683Z,3.10
2023-04-07T23:50:09.867Z,3.10
2023-04-07T23:52:37.932Z,3.20
2023-04-07T23:55:08.945Z,3.10
2023-04-07T23:57:37.174Z,3.10
